Nearby METAR Reports

 

KNUQ - Moffett Nas/Mtn, California, USA
Distance from station: N 9mi, 14km
Updated: Thu, 21-Nov-2019 8:56am PST
NOT Current

 
Barometer: 29.86 inHg , 1011.2 hPa
2019/11/21 16:56 KNUQ 211656Z AUTO A2986 RMK AO2 SLP116 PWINO $
KSJC - San Jose, California, USA
Distance from station: NE 9mi, 14km
Updated: Wed, 08-Apr-2020 10:53am PDT
Mostly Cloudy
Mostly Cloudy
 Wind from S
Wind: S 6 mph , 9 km/h
Temperature: 57°F , 14°C
Dew Point: 45°F , 7°C
Humidity: 63%
Barometer: 29.98 inHg , 1015.2 hPa
Clouds: Mostly Cloudy
Visibility: 10 miles , 16 km
Cloud details: Few Clouds 1400 ft
Partly Cloudy 6500 ft
Mostly Cloudy 10000 ft
2020/04/08 17:53 KSJC 081753Z 19005KT 10SM FEW014 SCT065 BKN100 14/07 A2998 RMK AO2 SLP150 T01390072 10139 20100 53000
 
KRHV - San Jose/Reid, California, USA
Distance from station: ENE 12mi, 19km
Updated: Wed, 08-Apr-2020 10:47am PDT
Mostly Cloudy
Mostly Cloudy
 Wind from S
Wind: S 10 mph , 17 km/h
Temperature: 57°F , 14°C
Dew Point: 48°F , 9°C
Humidity: 72%
Barometer: 29.98 inHg , 1015.2 hPa
Clouds: Mostly Cloudy
Visibility: 10 miles , 16 km
Cloud details: Few Clouds 2000 ft
Mostly Cloudy 10000 ft
2020/04/08 17:47 KRHV 081747Z 17009KT 10SM FEW020 BKN100 14/09 A2998
KPAO - Palo Alto, California, USA
Distance from station: NNW 14mi, 23km
Updated: Wed, 08-Apr-2020 10:47am PDT
Mostly Cloudy
Mostly Cloudy
 Wind from calm
Wind: Calm
Temperature: 55°F , 13°C
Dew Point: 48°F , 9°C
Humidity: 77%
Barometer: 29.98 inHg , 1015.2 hPa
Clouds: Mostly Cloudy
Visibility: 10 miles , 16 km
Cloud details: Few Clouds 4000 ft
Mostly Cloudy 10000 ft
2020/04/08 17:47 KPAO 081747Z 00000KT 10SM FEW040 BKN100 13/09 A2998
 
KSQL - San Carlos Airpo, California, USA
Distance from station: NW 21mi, 34km
Updated: Wed, 08-Apr-2020 10:48am PDT
Overcast
Overcast
 Wind from NE
Wind: NE 6 mph , 9 km/h
Temperature: 55°F , 13°C
Dew Point: 50°F , 10°C
Humidity: 82%
Barometer: 29.97 inHg , 1014.9 hPa
Clouds: Overcast
Visibility: 10 miles , 16 km
Cloud details: Overcast 2100 ft
2020/04/08 17:48 KSQL 081748Z 04005KT 10SM OVC021 13/10 A2997
KWVI - Watsonville, California, USA
Distance from station: SSE 27mi, 44km
Updated: Wed, 08-Apr-2020 10:53am PDT
Overcast
Overcast
 Wind from SW
Wind: SW 7 mph , 11 km/h
Temperature: 55°F , 13°C
Dew Point: 48°F , 9°C
Humidity: 77%
Barometer: 30.01 inHg , 1016.3 hPa
Clouds: Overcast
Visibility: 10 miles , 16 km
Cloud details: Mostly Cloudy 1800 ft
Overcast 2200 ft
2020/04/08 17:53 KWVI 081753Z AUTO 22006KT 10SM BKN018 OVC022 13/09 A3001 RMK AO2 SLP162 T01280094 10128 20100 53008
 
KHWD - Hayward, California, USA
Distance from station: N 28mi, 44km
Updated: Wed, 08-Apr-2020 10:54am PDT
Mostly Cloudy
Mostly Cloudy
 Wind from calm
Wind: Calm
Temperature: 55°F , 13°C
Dew Point: 46°F , 8°C
Humidity: 72%
Barometer: 29.98 inHg , 1015.2 hPa
Clouds: Mostly Cloudy
Visibility: 10 miles , 16 km
Cloud details: Mostly Cloudy 1700 ft
2020/04/08 17:54 KHWD 081754Z 00000KT 10SM BKN017 13/08 A2998 RMK AO2 SLP160 T01330078 10139 20106 55002
KSFO - San Francisco, California, USA
Distance from station: NW 30mi, 49km
Updated: Wed, 08-Apr-2020 9:56am PDT
Mostly Cloudy
Mostly Cloudy
 Wind from WSW
Wind: WSW 8 mph , 13 km/h
Temperature: 55°F , 13°C
Dew Point: 48°F , 9°C
Humidity: 77%
Barometer: 29.96 inHg , 1014.6 hPa
Clouds: Mostly Cloudy
Visibility: 9 miles , 14 km
Cloud details: Mostly Cloudy 1500 ft
2020/04/08 16:56 KSFO 081656Z 25007KT 9SM BKN015 13/09 A2996 RMK AO2 SLP144 T01330089
 
KHAF - Half Moon Bay, California, USA
Distance from station: WNW 31mi, 50km
Updated: Wed, 08-Apr-2020 10:55am PDT
Mist, Overcast
Mist, Overcast
 Wind from SSE
Wind: SSE 5 mph , 7 km/h
Temperature: 50°F , 10°C
Wind Chill: 48°F , 9°C
Dew Point: 48°F , 9°C
Humidity: 94%
Barometer: 30.01 inHg , 1016.3 hPa
Summary: Mist
Clouds: Overcast
Visibility: 2 miles , 3 km
Cloud details: Overcast 1000 ft
2020/04/08 17:55 KHAF 081755Z AUTO 16004KT 2SM BR OVC010 10/09 A3001 RMK AO2
KOAK - Oakland, California, USA
Distance from station: NNW 31mi, 50km
Updated: Wed, 08-Apr-2020 10:53am PDT
Overcast
Overcast
 Wind from W
Wind: W 7 mph , 11 km/h
Temperature: 57°F , 14°C
Dew Point: 48°F , 9°C
Humidity: 72%
Barometer: 30.00 inHg , 1015.9 hPa
Clouds: Overcast
Visibility: 10 miles , 16 km
Cloud details: Overcast 1400 ft
2020/04/08 17:53 KOAK 081753Z 27006KT 10SM OVC014 14/09 A3000 RMK AO2 SLP157 T01390089 10144 20117 55001
 
KLVK - Livermore, California, USA
Distance from station: NNE 31mi, 51km
Updated: Wed, 08-Apr-2020 10:53am PDT
Clear
Clear
 Wind from calm
Wind: Calm
Temperature: 57°F , 14°C
Dew Point: 46°F , 8°C
Humidity: 67%
Barometer: 29.95 inHg , 1014.2 hPa
Clouds: Clear
Visibility: 10 miles , 16 km
2020/04/08 17:53 KLVK 081753Z 00000KT 10SM CLR 14/08 A2995 RMK AO2 SLP142 T01390078 10139 20094 56005
KCVH - Hollister Muni, California, USA
Distance from station: SE 42mi, 68km
Updated: Wed, 08-Apr-2020 10:55am PDT
Mostly Cloudy
Mostly Cloudy
 Wind from W
Wind: W 13 mph , 20 km/h
Temperature: 55°F , 13°C
Dew Point: 50°F , 10°C
Humidity: 82%
Barometer: 30.00 inHg , 1015.9 hPa
Clouds: Mostly Cloudy
Visibility: 10 miles , 16 km
Cloud details: Mostly Cloudy 1800 ft
Mostly Cloudy 2400 ft
2020/04/08 17:55 KCVH 081755Z AUTO 26011KT 10SM BKN018 BKN024 13/10 A3000 RMK A01
 
KSNS - Salinas, California, USA
Distance from station: SSE 48mi, 77km
Updated: Wed, 08-Apr-2020 10:53am PDT
Overcast
Overcast
 Wind from W
Wind: W 10 mph , 17 km/h
Temperature: 55°F , 13°C
Dew Point: 46°F , 8°C
Humidity: 72%
Barometer: 29.99 inHg , 1015.6 hPa
Clouds: Overcast
Visibility: 10 miles , 16 km
Cloud details: Few Clouds 2000 ft
Overcast 2400 ft
2020/04/08 17:53 KSNS 081753Z 28009KT 10SM FEW020 OVC024 13/08 A2999 RMK AO2 RAB39E53 SLP165 P0000 60000 T01280083 10128 20100 53004
KMRY - Monterey, California, USA
Distance from station: SSE 49mi, 78km
Updated: Wed, 08-Apr-2020 10:54am PDT
Overcast
Overcast
 Wind from W
Wind: W 9 mph , 15 km/h
Temperature: 57°F , 14°C
Dew Point: 48°F , 9°C
Humidity: 72%
Barometer: 30.01 inHg , 1016.3 hPa
Clouds: Overcast
Visibility: 10 miles , 16 km
Cloud details: Few Clouds 1400 ft
Overcast 1900 ft
2020/04/08 17:54 KMRY 081754Z 27008KT 10SM FEW014 OVC019 14/09 A3001 RMK AO2 SLP173 T01390094 10139 20122 53006
 
KCCR - Concord, California, USA
Distance from station: N 50mi, 81km
Updated: Wed, 08-Apr-2020 10:53am PDT
Clear
Clear
 Wind from calm
Wind: Calm
Temperature: 59°F , 15°C
Dew Point: 48°F , 9°C
Humidity: 68%
Barometer: 29.96 inHg , 1014.6 hPa
Clouds: Clear
Visibility: 10 miles , 16 km
2020/04/08 17:53 KCCR 081753Z 00000KT 10SM CLR 15/09 A2996 RMK AO2 SLP131 T01500089 10150 20094 55003

Metar display script from Saratoga-Weather.org